createdAt,value
2019-05-10T00:00:59.755Z,99837.33
2019-05-10T00:03:48.282Z,99842.09
2019-05-10T00:06:37.327Z,99840.50
2019-05-10T00:09:09.949Z,99839.10
2019-05-10T00:12:18.486Z,99845.38
2019-05-10T00:14:51.803Z,99851.73
2019-05-10T00:17:23.994Z,99855.27
2019-05-10T00:19:55.235Z,99849.89
2019-05-10T00:22:26.777Z,99853.63
2019-05-10T00:25:04.340Z,99850.38
2019-05-10T00:27:30.897Z,99853.12
2019-05-10T00:30:05.830Z,99847.30
2019-05-10T00:32:37.015Z,99846.22
2019-05-10T00:35:08.353Z,99842.48
2019-05-10T00:37:39.592Z,99846.13
2019-05-10T00:40:11.082Z,99845.89
2019-05-10T00:42:42.251Z,99850.92
2019-05-10T00:45:13.561Z,99841.77
2019-05-10T00:47:44.703Z,99844.29
2019-05-10T00:50:16.317Z,99848.16
2019-05-10T00:52:47.419Z,99846.70
2019-05-10T00:55:19.526Z,99852.81
2019-05-10T00:57:50.847Z,99853.12
2019-05-10T01:00:22.110Z,99851.42
2019-05-10T01:02:53.328Z,99849.88
2019-05-10T01:05:24.522Z,99850.38
2019-05-10T01:07:55.796Z,99854.38
2019-05-10T01:10:27.041Z,99854.61
2019-05-10T01:12:58.282Z,99861.09
2019-05-10T01:15:29.522Z,99858.97
2019-05-10T01:18:00.747Z,99858.78
2019-05-10T01:20:31.969Z,99858.08
2019-05-10T01:23:03.215Z,99852.35
2019-05-10T01:25:35.787Z,99857.28
2019-05-10T01:28:07.345Z,99856.34
2019-05-10T01:30:38.539Z,99856.75
2019-05-10T01:33:09.742Z,99855.16
2019-05-10T01:35:41.019Z,99860.79
2019-05-10T01:38:12.244Z,99859.42
2019-05-10T01:40:43.504Z,99861.89
2019-05-10T01:43:14.706Z,99860.44
2019-05-10T01:45:45.865Z,99863.36
2019-05-10T01:48:17.058Z,99862.47
2019-05-10T01:50:48.296Z,99862.60
2019-05-10T01:53:19.526Z,99861.05
2019-05-10T01:55:52.542Z,99867.52
2019-05-10T01:58:23.657Z,99869.13
2019-05-10T02:00:54.909Z,99866.73
2019-05-10T02:03:26.149Z,99868.94
2019-05-10T02:05:57.301Z,99868.47
2019-05-10T02:08:28.517Z,99870.41
2019-05-10T02:10:59.749Z,99870.77
2019-05-10T02:13:31.016Z,99870.81
2019-05-10T02:16:02.285Z,99875.51
2019-05-10T02:18:33.492Z,99876.97
2019-05-10T02:21:04.749Z,99879.73
2019-05-10T02:23:35.983Z,99883.22
2019-05-10T02:26:09.780Z,99887.58
2019-05-10T02:28:40.093Z,99876.63
2019-05-10T02:31:11.237Z,99877.59
2019-05-10T02:33:42.486Z,99878.98
2019-05-10T02:36:13.747Z,99884.17
2019-05-10T02:38:44.893Z,99892.16
2019-05-10T02:41:16.249Z,99883.33
2019-05-10T02:43:47.477Z,99883.38
2019-05-10T02:46:18.740Z,99886.13
2019-05-10T02:48:49.945Z,99887.19
2019-05-10T02:51:21.156Z,99890.52
2019-05-10T02:53:52.474Z,99889.38
2019-05-10T02:56:30.187Z,99890.66
2019-05-10T02:58:58.782Z,99893.27
2019-05-10T03:01:32.286Z,99897.40
2019-05-10T03:04:04.721Z,99889.94
2019-05-10T03:06:41.735Z,99896.11
2019-05-10T03:09:12.989Z,99896.81
2019-05-10T03:11:51.044Z,99897.70
2019-05-10T03:14:23.917Z,99904.00
2019-05-10T03:16:55.066Z,99905.02
2019-05-10T03:19:27.949Z,99899.17
2019-05-10T03:22:09.790Z,99898.36
2019-05-10T03:24:41.037Z,99910.27
2019-05-10T03:27:12.253Z,99911.69
2019-05-10T03:29:43.507Z,99919.93
2019-05-10T03:32:14.923Z,99922.86
2019-05-10T03:34:46.181Z,99922.86
2019-05-10T03:37:17.589Z,99924.69
2019-05-10T03:39:48.909Z,99928.37
2019-05-10T03:42:20.292Z,99937.23
2019-05-10T03:44:51.534Z,99930.19
2019-05-10T03:47:22.664Z,99935.20
2019-05-10T03:49:53.961Z,99940.48
2019-05-10T03:52:25.176Z,99945.27
2019-05-10T03:54:56.366Z,99941.72
2019-05-10T03:57:27.636Z,99946.28
2019-05-10T03:59:58.862Z,99953.00
2019-05-10T04:02:30.110Z,99958.25
2019-05-10T04:05:01.393Z,99962.60
2019-05-10T04:07:32.606Z,99969.30
2019-05-10T04:10:03.889Z,99964.50
2019-05-10T04:12:35.207Z,99968.98
2019-05-10T04:15:07.994Z,99967.38
2019-05-10T04:17:39.172Z,99975.32
2019-05-10T04:20:10.994Z,99973.33
2019-05-10T04:22:42.206Z,99966.36
2019-05-10T04:25:15.394Z,99982.36
2019-05-10T04:27:46.598Z,99986.98
2019-05-10T04:30:20.273Z,99987.16
2019-05-10T04:32:51.610Z,99991.25
2019-05-10T04:35:22.910Z,99994.55
2019-05-10T04:37:54.115Z,99996.52
2019-05-10T04:40:25.372Z,100003.65
2019-05-10T04:42:56.767Z,100011.15
2019-05-10T04:45:27.988Z,100010.63
2019-05-10T04:47:59.262Z,100022.00
2019-05-10T04:50:30.496Z,100021.31
2019-05-10T04:53:01.760Z,100019.52
2019-05-10T04:55:33.010Z,100021.09
2019-05-10T04:58:04.257Z,100032.63
2019-05-10T05:00:35.494Z,100035.67
2019-05-10T05:03:06.774Z,100035.81
2019-05-10T05:05:37.950Z,100043.31
2019-05-10T05:08:09.084Z,100037.98
2019-05-10T05:10:40.354Z,100055.88
2019-05-10T05:13:11.616Z,100059.70
2019-05-10T05:15:42.852Z,100057.95
2019-05-10T05:18:14.067Z,100063.91
2019-05-10T05:20:45.447Z,100065.23
2019-05-10T05:23:16.679Z,100069.55
2019-05-10T05:25:47.883Z,100073.55
2019-05-10T05:28:23.127Z,100068.08
2019-05-10T05:30:52.592Z,100075.33
2019-05-10T05:33:23.845Z,100079.78
2019-05-10T05:35:55.049Z,100080.29
2019-05-10T05:38:26.288Z,100086.69
2019-05-10T05:40:57.491Z,100087.45
2019-05-10T05:43:28.755Z,100092.56
2019-05-10T05:45:59.970Z,100095.23
2019-05-10T05:48:40.055Z,100103.59
2019-05-10T05:51:04.183Z,100102.23
2019-05-10T05:53:41.551Z,100102.56
2019-05-10T05:56:12.525Z,100103.67
2019-05-10T05:58:44.778Z,100103.45
2019-05-10T06:01:24.952Z,100109.66
2019-05-10T06:03:47.100Z,100110.43
2019-05-10T06:06:21.740Z,100112.13
2019-05-10T06:08:54.428Z,100108.22
2019-05-10T06:11:24.115Z,100113.68
2019-05-10T06:13:55.323Z,100118.87
2019-05-10T06:16:26.601Z,100123.22
2019-05-10T06:18:57.855Z,100128.58
2019-05-10T06:21:29.126Z,100126.69
2019-05-10T06:24:00.304Z,100130.12
2019-05-10T06:26:31.493Z,100131.74
2019-05-10T06:29:04.481Z,100139.14
2019-05-10T06:31:35.683Z,100140.53
2019-05-10T06:34:07.032Z,100144.98
2019-05-10T06:36:38.299Z,100145.69
2019-05-10T06:39:09.833Z,100149.64
2019-05-10T06:41:41.085Z,100157.66
2019-05-10T06:44:12.456Z,100158.73
2019-05-10T06:46:43.629Z,100161.80
2019-05-10T06:49:14.787Z,100167.70
2019-05-10T06:51:49.261Z,100168.70
2019-05-10T06:54:19.054Z,100171.08
2019-05-10T06:56:50.290Z,100174.17
2019-05-10T06:59:24.936Z,100175.51
2019-05-10T07:01:54.301Z,100161.48
2019-05-10T07:04:27.306Z,100164.02
2019-05-10T07:06:58.472Z,100180.02
2019-05-10T07:09:29.726Z,100184.29
2019-05-10T07:12:00.918Z,100188.97
2019-05-10T07:14:32.168Z,100194.92
2019-05-10T07:17:04.476Z,100200.07
2019-05-10T07:19:41.603Z,100208.84
2019-05-10T07:22:08.713Z,100212.52
2019-05-10T07:24:39.976Z,100223.43
2019-05-10T07:27:11.159Z,100227.77
2019-05-10T07:29:45.982Z,100230.18
2019-05-10T07:32:16.345Z,100227.16
2019-05-10T07:34:58.289Z,100232.13
2019-05-10T07:37:21.529Z,100229.05
2019-05-10T07:39:52.794Z,100236.06
2019-05-10T07:42:24.016Z,100237.69
2019-05-10T07:44:55.220Z,100239.22
2019-05-10T07:47:30.469Z,100245.20
2019-05-10T07:50:04.004Z,100240.84
2019-05-10T07:52:36.199Z,100246.90
2019-05-10T07:55:05.867Z,100249.52
2019-05-10T07:57:37.061Z,100260.05
2019-05-10T08:00:08.545Z,100272.27
2019-05-10T08:02:44.531Z,100264.53
2019-05-10T08:05:18.286Z,100269.62
2019-05-10T08:07:49.520Z,100272.31
2019-05-10T08:10:21.655Z,100281.91
2019-05-10T08:12:53.164Z,100282.20
2019-05-10T08:15:29.326Z,100285.67
2019-05-10T08:17:58.561Z,100285.66
2019-05-10T08:20:43.707Z,100283.61
2019-05-10T08:23:12.905Z,100285.09
2019-05-10T08:25:46.768Z,100292.75
2019-05-10T08:28:16.223Z,100297.38
2019-05-10T08:30:58.100Z,100289.66
2019-05-10T08:33:22.889Z,100289.17
2019-05-10T08:36:01.090Z,100289.36
2019-05-10T08:38:27.286Z,100293.69
2019-05-10T08:40:58.550Z,100296.81
2019-05-10T08:43:38.772Z,100294.98
2019-05-10T08:46:04.372Z,100297.34
2019-05-10T08:48:38.005Z,100299.98
2019-05-10T08:51:08.650Z,100304.89
2019-05-10T08:53:42.181Z,100314.97
2019-05-10T08:56:20.627Z,100316.66
2019-05-10T08:58:45.668Z,100319.77
2019-05-10T09:01:26.557Z,100325.63
2019-05-10T09:03:55.059Z,100337.06
2019-05-10T09:06:22.646Z,100349.77
2019-05-10T09:09:01.618Z,100343.06
2019-05-10T09:11:26.869Z,100353.70
2019-05-10T09:13:58.114Z,100353.53
2019-05-10T09:16:35.042Z,100360.59
2019-05-10T09:19:02.701Z,100363.90
2019-05-10T09:21:33.919Z,100375.01
2019-05-10T09:24:06.645Z,100385.36
2019-05-10T09:26:37.917Z,100387.02
2019-05-10T09:29:09.188Z,100390.81
2019-05-10T09:31:46.054Z,100392.09
2019-05-10T09:34:14.915Z,100390.50
2019-05-10T09:37:42.307Z,100401.36
2019-05-10T09:40:14.039Z,100394.21
2019-05-10T09:42:48.844Z,100395.00
2019-05-10T09:45:22.224Z,100403.30
2019-05-10T09:47:54.328Z,100405.05
2019-05-10T09:50:30.481Z,100411.75
2019-05-10T09:53:01.142Z,100408.89
2019-05-10T09:55:55.381Z,100414.78
2019-05-10T09:58:28.536Z,100414.43
2019-05-10T10:05:32.239Z,100422.95
2019-05-10T10:08:08.500Z,100428.65
2019-05-10T10:10:37.217Z,100426.95
2019-05-10T10:13:13.538Z,100436.24
2019-05-10T10:15:41.366Z,100438.86
2019-05-10T10:18:18.198Z,100439.41
2019-05-10T10:20:47.906Z,100437.72
2019-05-10T10:23:18.554Z,100433.84
2019-05-10T10:25:49.798Z,100436.97
2019-05-10T10:28:22.551Z,100435.20
2019-05-10T10:31:03.437Z,100438.22
2019-05-10T10:33:29.053Z,100444.49
2019-05-10T10:36:04.848Z,100444.37
2019-05-10T10:38:39.738Z,100437.79
2019-05-10T10:41:08.084Z,100445.59
2019-05-10T10:43:38.280Z,100439.19
2019-05-10T10:46:12.450Z,100436.09
2019-05-10T10:48:43.693Z,100435.68
2019-05-10T10:51:15.375Z,100435.91
2019-05-10T10:53:47.089Z,100429.59
2019-05-10T10:56:18.410Z,100437.04
2019-05-10T10:58:50.179Z,100432.02
2019-05-10T11:01:25.341Z,100437.47
2019-05-10T11:03:54.446Z,100441.94
2019-05-10T11:06:25.604Z,100445.94
2019-05-10T11:08:56.846Z,100437.25
2019-05-10T11:11:30.753Z,100433.98
2019-05-10T11:14:07.283Z,100430.08
2019-05-10T11:16:33.829Z,100431.88
2019-05-10T11:19:13.251Z,100438.41
2019-05-10T11:21:37.989Z,100433.66
2019-05-10T11:24:10.575Z,100442.34
2019-05-10T11:26:44.781Z,100450.74
2019-05-10T11:29:22.975Z,100447.53
2019-05-10T11:31:58.751Z,100440.66
2019-05-10T11:34:21.671Z,100446.12
2019-05-10T11:36:53.156Z,100452.80
2019-05-10T11:39:26.913Z,100457.16
2019-05-10T11:42:02.415Z,100455.78
2019-05-10T11:44:31.702Z,100461.98
2019-05-10T11:47:02.999Z,100455.89
2019-05-10T11:49:34.264Z,100454.20
2019-05-10T11:52:05.558Z,100461.78
2019-05-10T11:54:36.799Z,100464.51
2019-05-10T11:57:10.969Z,100466.80
2019-05-10T11:59:41.569Z,100471.77
2019-05-10T12:02:33.896Z,100473.90
2019-05-10T12:04:45.796Z,100476.36
2019-05-10T12:07:23.899Z,100474.54
2019-05-10T12:09:53.320Z,100478.94
2019-05-10T12:12:29.707Z,100481.11
2019-05-10T12:14:55.576Z,100484.99
2019-05-10T12:17:26.821Z,100485.42
2019-05-10T12:19:58.044Z,100482.20
2019-05-10T12:22:37.897Z,100495.34
2019-05-10T12:25:27.392Z,100491.52
2019-05-10T12:27:45.278Z,100493.02
2019-05-10T12:30:08.522Z,100496.31
2019-05-10T12:32:55.113Z,100494.61
2019-05-10T12:35:12.881Z,100492.92
2019-05-10T12:37:48.785Z,100498.41
2019-05-10T12:40:17.889Z,100505.32
2019-05-10T12:42:49.022Z,100497.30
2019-05-10T12:45:22.864Z,100498.19
2019-05-10T12:47:53.357Z,100499.86
2019-05-10T12:50:24.825Z,100500.00
2019-05-10T12:53:03.261Z,100497.20
2019-05-10T12:55:28.967Z,100509.03
2019-05-10T12:58:00.152Z,100504.53
2019-05-10T13:00:31.471Z,100515.50
2019-05-10T13:03:12.183Z,100520.12
2019-05-10T13:05:50.225Z,100524.67
2019-05-10T13:08:08.738Z,100519.34
2019-05-10T13:10:43.346Z,100524.41
2019-05-10T13:13:17.595Z,100526.39
2019-05-10T13:15:46.156Z,100523.10
2019-05-10T13:18:17.378Z,100520.86
2019-05-10T13:20:48.540Z,100513.84
2019-05-10T13:23:19.887Z,100522.73
2019-05-10T13:25:51.183Z,100519.80
2019-05-10T13:28:22.304Z,100514.77
2019-05-10T13:30:53.612Z,100522.02
2019-05-10T13:33:29.048Z,100525.04
2019-05-10T13:35:58.521Z,100523.84
2019-05-10T13:38:30.368Z,100526.03
2019-05-10T13:41:03.581Z,100528.02
2019-05-10T13:43:34.799Z,100518.64
2019-05-10T13:46:06.040Z,100516.23
2019-05-10T13:48:37.321Z,100513.84
2019-05-10T13:51:08.531Z,100522.57
2019-05-10T13:53:39.836Z,100518.89
2019-05-10T13:56:11.026Z,100521.05
2019-05-10T13:58:42.267Z,100516.50
2019-05-10T14:01:14.847Z,100520.21
2019-05-10T14:03:53.785Z,100513.12
2019-05-10T14:06:19.334Z,100518.20
2019-05-10T14:08:50.595Z,100516.25
2019-05-10T14:11:21.821Z,100518.45
2019-05-10T14:13:53.243Z,100521.70
2019-05-10T14:16:24.469Z,100515.70
2019-05-10T14:18:55.664Z,100520.99
2019-05-10T14:21:26.918Z,100514.01
2019-05-10T14:23:58.148Z,100511.58
2019-05-10T14:26:29.358Z,100514.52
2019-05-10T14:29:00.653Z,100517.80
2019-05-10T14:31:31.893Z,100522.54
2019-05-10T14:34:18.516Z,100540.02
2019-05-10T14:36:40.878Z,100551.74
2019-05-10T14:39:09.733Z,100569.61
2019-05-10T14:41:45.269Z,100571.80
2019-05-10T14:44:13.730Z,100570.90
2019-05-10T14:46:44.926Z,100584.03
2019-05-10T14:49:16.079Z,100590.42
2019-05-10T14:51:58.287Z,100593.45
2019-05-10T14:54:20.927Z,100600.05
2019-05-10T14:56:54.051Z,100597.23
2019-05-10T14:59:25.123Z,100595.82
2019-05-10T15:01:56.324Z,100598.02
2019-05-10T15:04:44.278Z,100600.05
2019-05-10T15:07:00.955Z,100597.61
2019-05-10T15:09:32.267Z,100590.34
2019-05-10T15:12:03.591Z,100582.95
2019-05-10T15:14:34.889Z,100576.81
2019-05-10T15:17:06.167Z,100570.77
2019-05-10T15:19:37.417Z,100579.34
2019-05-10T15:22:08.692Z,100579.33
2019-05-10T15:24:42.102Z,100574.47
2019-05-10T15:27:16.282Z,100571.98
2019-05-10T15:29:46.347Z,100568.63
2019-05-10T15:32:17.678Z,100570.92
2019-05-10T15:35:05.709Z,100573.42
2019-05-10T15:37:23.235Z,100577.64
2019-05-10T15:39:54.507Z,100569.91
2019-05-10T15:42:30.408Z,100568.34
2019-05-10T15:44:58.681Z,100568.83
2019-05-10T15:47:29.944Z,100564.16
2019-05-10T15:50:01.617Z,100567.15
2019-05-10T15:52:33.092Z,100572.84
2019-05-10T15:55:04.351Z,100570.94
2019-05-10T15:57:35.689Z,100576.47
2019-05-10T16:00:09.156Z,100571.69
2019-05-10T16:02:40.345Z,100583.17
2019-05-10T16:05:25.616Z,100586.98
2019-05-10T16:07:46.371Z,100588.33
2019-05-10T16:10:18.067Z,100581.44
2019-05-10T16:12:49.311Z,100584.86
2019-05-10T16:15:21.355Z,100583.84
2019-05-10T16:17:53.916Z,100585.48
2019-05-10T16:20:25.564Z,100588.92
2019-05-10T16:22:56.848Z,100590.65
2019-05-10T16:25:32.913Z,100594.66
2019-05-10T16:28:01.060Z,100601.19
2019-05-10T16:30:32.160Z,100600.67
2019-05-10T16:33:09.707Z,100602.22
2019-05-10T16:35:39.346Z,100612.12
2019-05-10T16:38:10.579Z,100617.38
2019-05-10T16:40:44.436Z,100618.28
2019-05-10T16:43:19.594Z,100621.20
2019-05-10T16:45:47.718Z,100624.17
2019-05-10T16:48:18.974Z,100624.78
2019-05-10T16:50:50.305Z,100634.92
2019-05-10T16:53:21.677Z,100641.70
2019-05-10T16:55:52.967Z,100651.95
2019-05-10T16:58:24.219Z,100651.16
2019-05-10T17:00:55.484Z,100649.38
2019-05-10T17:03:28.691Z,100650.64
2019-05-10T17:06:04.171Z,100642.38
2019-05-10T17:08:36.693Z,100631.96
2019-05-10T17:11:10.053Z,100624.17
2019-05-10T17:13:41.555Z,100614.64
2019-05-10T17:16:17.215Z,100589.73
2019-05-10T17:18:49.740Z,100560.11
2019-05-10T17:21:18.020Z,100554.98
2019-05-10T17:23:49.167Z,100558.80
2019-05-10T17:26:20.430Z,100558.93
2019-05-10T17:28:51.559Z,100557.77
2019-05-10T17:31:22.826Z,100557.39
2019-05-10T17:33:54.070Z,100554.36
2019-05-10T17:36:25.591Z,100555.70
2019-05-10T17:38:56.750Z,100565.01
2019-05-10T17:41:27.979Z,100563.20
2019-05-10T17:43:59.116Z,100562.55
2019-05-10T17:46:30.369Z,100563.89
2019-05-10T17:49:04.846Z,100567.73
2019-05-10T17:51:36.262Z,100567.05
2019-05-10T17:54:07.511Z,100568.20
2019-05-10T17:56:45.118Z,100561.06
2019-05-10T17:59:16.449Z,100570.22
2019-05-10T18:01:47.725Z,100557.17
2019-05-10T18:04:18.988Z,100563.78
2019-05-10T18:06:50.281Z,100559.77
2019-05-10T18:09:24.395Z,100554.27
2019-05-10T18:11:55.660Z,100555.11
2019-05-10T18:14:29.521Z,100563.77
2019-05-10T18:16:59.775Z,100570.59
2019-05-10T18:19:31.075Z,100565.80
2019-05-10T18:22:06.233Z,100572.52
2019-05-10T18:24:37.208Z,100570.98
2019-05-10T18:27:08.087Z,100586.00
2019-05-10T18:29:39.254Z,100590.55
2019-05-10T18:32:11.131Z,100604.87
2019-05-10T18:34:42.631Z,100612.36
2019-05-10T18:37:15.754Z,100603.52
2019-05-10T18:39:47.496Z,100608.31
2019-05-10T18:42:25.542Z,100612.12
2019-05-10T18:44:54.176Z,100618.13
2019-05-10T18:47:25.657Z,100618.79
2019-05-10T18:49:56.850Z,100618.30
2019-05-10T18:52:28.125Z,100621.77
2019-05-10T18:55:00.869Z,100627.44
2019-05-10T18:57:31.967Z,100620.75
2019-05-10T19:00:03.566Z,100620.75
2019-05-10T19:02:35.160Z,100616.87
2019-05-10T19:05:07.603Z,100614.40
2019-05-10T19:07:38.818Z,100614.48
2019-05-10T19:10:13.566Z,100610.28
2019-05-10T19:12:45.057Z,100607.58
2019-05-10T19:15:16.925Z,100609.36
2019-05-10T19:17:48.526Z,100602.51
2019-05-10T19:20:19.870Z,100602.84
2019-05-10T19:22:51.157Z,100599.81
2019-05-10T19:25:22.442Z,100609.07
2019-05-10T19:27:53.622Z,100606.03
2019-05-10T19:30:24.929Z,100594.21
2019-05-10T19:32:57.941Z,100588.45
2019-05-10T19:35:29.636Z,100593.55
2019-05-10T19:38:02.077Z,100598.33
2019-05-10T19:40:33.285Z,100614.02
2019-05-10T19:43:04.520Z,100628.34
2019-05-10T19:45:36.097Z,100629.27
2019-05-10T19:48:07.327Z,100633.41
2019-05-10T19:50:38.608Z,100639.66
2019-05-10T19:53:09.800Z,100647.44
2019-05-10T19:55:41.143Z,100654.22
2019-05-10T19:58:12.356Z,100663.47
2019-05-10T20:00:43.686Z,100659.45
2019-05-10T20:03:15.352Z,100654.98
2019-05-10T20:05:47.117Z,100656.45
2019-05-10T20:08:19.988Z,100654.91
2019-05-10T20:10:51.714Z,100658.33
2019-05-10T20:13:22.933Z,100656.30
2019-05-10T20:15:54.137Z,100655.67
2019-05-10T20:18:25.417Z,100650.27
2019-05-10T20:20:56.745Z,100649.88
2019-05-10T20:23:29.325Z,100654.59
2019-05-10T20:26:00.913Z,100655.36
2019-05-10T20:28:32.128Z,100658.64
2019-05-10T20:31:03.516Z,100648.27
2019-05-10T20:33:34.762Z,100651.80
2019-05-10T20:36:06.025Z,100639.30
2019-05-10T20:38:37.238Z,100645.55
2019-05-10T20:41:08.560Z,100638.54
2019-05-10T20:43:39.771Z,100642.99
2019-05-10T20:46:14.202Z,100651.75
2019-05-10T20:48:45.423Z,100642.36
2019-05-10T20:51:16.706Z,100644.26
2019-05-10T20:53:48.293Z,100646.95
2019-05-10T20:56:19.628Z,100644.88
2019-05-10T20:58:50.849Z,100638.59
2019-05-10T21:01:22.048Z,100639.24
2019-05-10T21:03:53.277Z,100630.34
2019-05-10T21:06:24.398Z,100632.20
2019-05-10T21:08:55.556Z,100631.81
2019-05-10T21:11:26.790Z,100628.98
2019-05-10T21:13:58.122Z,100622.53
2019-05-10T21:16:29.381Z,100617.66
2019-05-10T21:19:00.652Z,100629.16
2019-05-10T21:21:31.815Z,100622.77
2019-05-10T21:24:02.987Z,100613.37
2019-05-10T21:26:34.247Z,100618.02
2019-05-10T21:29:05.541Z,100622.27
2019-05-10T21:31:36.774Z,100615.00
2019-05-10T21:34:10.082Z,100606.45
2019-05-10T21:36:40.942Z,100619.69
2019-05-10T21:39:12.153Z,100613.53
2019-05-10T21:41:43.405Z,100615.25
2019-05-10T21:44:14.604Z,100613.99
2019-05-10T21:46:45.822Z,100601.11
2019-05-10T21:49:17.097Z,100602.20
2019-05-10T21:51:48.230Z,100597.20
2019-05-10T21:54:19.460Z,100587.57
2019-05-10T21:56:50.676Z,100579.94
2019-05-10T21:59:21.955Z,100577.72
2019-05-10T22:01:53.335Z,100577.61
2019-05-10T22:04:24.527Z,100579.42
2019-05-10T22:06:55.721Z,100580.19
2019-05-10T22:09:27.029Z,100582.98
2019-05-10T22:11:59.685Z,100576.81
2019-05-10T22:14:31.162Z,100579.34
2019-05-10T22:17:02.373Z,100586.29
2019-05-10T22:19:33.616Z,100579.58
2019-05-10T22:22:04.864Z,100584.10
2019-05-10T22:24:35.924Z,100572.69
2019-05-10T22:27:07.157Z,100570.20
2019-05-10T22:29:38.439Z,100573.64
2019-05-10T22:32:09.818Z,100581.98
2019-05-10T22:34:41.107Z,100584.89
2019-05-10T22:37:12.375Z,100581.58
2019-05-10T22:39:43.516Z,100567.98
2019-05-10T22:42:14.757Z,100563.23
2019-05-10T22:44:45.983Z,100559.43
2019-05-10T22:47:17.258Z,100565.08
2019-05-10T22:49:48.414Z,100568.54
2019-05-10T22:52:19.676Z,100564.84
2019-05-10T22:54:50.923Z,100571.89
2019-05-10T22:57:22.217Z,100567.31
2019-05-10T22:59:53.472Z,100561.08
2019-05-10T23:02:24.677Z,100556.42
2019-05-10T23:04:55.894Z,100549.98
2019-05-10T23:07:26.938Z,100536.84
2019-05-10T23:09:58.009Z,100542.28
2019-05-10T23:12:29.177Z,100544.19
2019-05-10T23:15:00.361Z,100539.37
2019-05-10T23:17:31.513Z,100535.84
2019-05-10T23:20:02.807Z,100532.47
2019-05-10T23:22:34.037Z,100529.69
2019-05-10T23:25:05.350Z,100523.72
2019-05-10T23:27:36.583Z,100529.95
2019-05-10T23:30:08.237Z,100524.18
2019-05-10T23:32:39.534Z,100515.02
2019-05-10T23:35:11.080Z,100514.51
2019-05-10T23:37:42.326Z,100521.45
2019-05-10T23:40:13.757Z,100533.21
2019-05-10T23:42:45.014Z,100541.17
2019-05-10T23:45:16.540Z,100537.38
2019-05-10T23:47:47.698Z,100529.86
2019-05-10T23:50:18.937Z,100532.19
2019-05-10T23:52:50.216Z,100535.17
2019-05-10T23:55:21.331Z,100543.98
2019-05-10T23:57:52.568Z,100541.84
